sensor_id;sensor_type;location;lat;lon;timestamp;pressure;altitude;pressure_sealevel;temperature;humidity
34674;BME280;20879;55.668;37.858;2024-02-23T00:04:28;100050.66;;;-2.96;95.50
34674;BME280;20879;55.668;37.858;2024-02-23T00:09:39;100045.78;;;-2.92;95.68
34674;BME280;20879;55.668;37.858;2024-02-23T00:14:46;100049.13;;;-2.93;95.61
34674;BME280;20879;55.668;37.858;2024-02-23T00:19:53;100039.25;;;-3.06;96.45
34674;BME280;20879;55.668;37.858;2024-02-23T00:24:58;100053.31;;;-3.13;96.35
34674;BME280;20879;55.668;37.858;2024-02-23T00:30:07;100045.44;;;-3.19;97.67
34674;BME280;20879;55.668;37.858;2024-02-23T00:35:14;100042.09;;;-3.18;97.88
34674;BME280;20879;55.668;37.858;2024-02-23T00:40:20;100048.72;;;-3.02;97.93
34674;BME280;20879;55.668;37.858;2024-02-23T00:45:35;100051.19;;;-3.04;97.47
34674;BME280;20879;55.668;37.858;2024-02-23T00:50:43;100047.59;;;-3.09;97.60
34674;BME280;20879;55.668;37.858;2024-02-23T00:55:49;100056.25;;;-3.04;97.61
34674;BME280;20879;55.668;37.858;2024-02-23T01:00:57;100048.66;;;-3.04;97.94
34674;BME280;20879;55.668;37.858;2024-02-23T01:06:02;100054.44;;;-3.06;98.17
34674;BME280;20879;55.668;37.858;2024-02-23T01:11:09;100055.06;;;-2.92;98.58
34674;BME280;20879;55.668;37.858;2024-02-23T01:16:16;100063.84;;;-3.04;98.56
34674;BME280;20879;55.668;37.858;2024-02-23T01:21:21;100070.06;;;-2.97;98.58
34674;BME280;20879;55.668;37.858;2024-02-23T01:26:26;100056.66;;;-2.94;99.74
34674;BME280;20879;55.668;37.858;2024-02-23T01:31:43;100061.91;;;-3.09;99.80
34674;BME280;20879;55.668;37.858;2024-02-23T01:36:53;100061.63;;;-3.16;100.00
34674;BME280;20879;55.668;37.858;2024-02-23T01:42:00;100054.16;;;-3.12;100.00
34674;BME280;20879;55.668;37.858;2024-02-23T01:47:10;100057.09;;;-3.03;100.00
34674;BME280;20879;55.668;37.858;2024-02-23T01:52:17;100058.31;;;-3.14;100.00
34674;BME280;20879;55.668;37.858;2024-02-23T01:57:27;100064.44;;;-3.09;100.00
34674;BME280;20879;55.668;37.858;2024-02-23T02:02:54;100060.25;;;-3.09;100.00
34674;BME280;20879;55.668;37.858;2024-02-23T02:08:03;100060.41;;;-3.06;100.00
34674;BME280;20879;55.668;37.858;2024-02-23T02:13:13;100070.06;;;-2.97;100.00
34674;BME280;20879;55.668;37.858;2024-02-23T02:18:26;100064.94;;;-2.99;100.00
34674;BME280;20879;55.668;37.858;2024-02-23T02:23:36;100069.00;;;-3.02;100.00
34674;BME280;20879;55.668;37.858;2024-02-23T02:28:42;100064.19;;;-2.96;100.00
34674;BME280;20879;55.668;37.858;2024-02-23T02:33:50;100064.50;;;-2.90;99.82
34674;BME280;20879;55.668;37.858;2024-02-23T02:38:55;100048.59;;;-3.05;100.00
34674;BME280;20879;55.668;37.858;2024-02-23T02:44:10;100074.00;;;-2.84;99.88
34674;BME280;20879;55.668;37.858;2024-02-23T02:49:20;100062.47;;;-2.77;99.48
34674;BME280;20879;55.668;37.858;2024-02-23T02:54:26;100071.16;;;-2.72;99.12
34674;BME280;20879;55.668;37.858;2024-02-23T02:59:34;100072.28;;;-2.66;98.70
34674;BME280;20879;55.668;37.858;2024-02-23T03:04:49;100068.00;;;-2.67;98.57
34674;BME280;20879;55.668;37.858;2024-02-23T03:10:06;100070.94;;;-2.77;99.06
34674;BME280;20879;55.668;37.858;2024-02-23T03:15:11;100077.03;;;-2.73;98.47
34674;BME280;20879;55.668;37.858;2024-02-23T03:20:24;100082.34;;;-2.67;98.81
34674;BME280;20879;55.668;37.858;2024-02-23T03:25:39;100078.78;;;-2.72;98.02
34674;BME280;20879;55.668;37.858;2024-02-23T03:30:44;100068.22;;;-2.82;98.18
34674;BME280;20879;55.668;37.858;2024-02-23T03:35:54;100097.44;;;-2.70;98.26
34674;BME280;20879;55.668;37.858;2024-02-23T03:41:05;100109.84;;;-2.57;98.64
34674;BME280;20879;55.668;37.858;2024-02-23T03:46:27;100098.84;;;-2.57;98.50
34674;BME280;20879;55.668;37.858;2024-02-23T03:51:39;100110.88;;;-2.53;97.91
34674;BME280;20879;55.668;37.858;2024-02-23T03:56:51;100069.94;;;-2.81;98.21
34674;BME280;20879;55.668;37.858;2024-02-23T04:01:56;100090.97;;;-2.64;98.20
34674;BME280;20879;55.668;37.858;2024-02-23T04:07:04;100102.91;;;-2.61;97.88
34674;BME280;20879;55.668;37.858;2024-02-23T04:12:21;100089.97;;;-2.67;98.24
34674;BME280;20879;55.668;37.858;2024-02-23T04:17:26;100112.91;;;-2.64;98.23
34674;BME280;20879;55.668;37.858;2024-02-23T04:22:41;100117.97;;;-2.64;98.17
34674;BME280;20879;55.668;37.858;2024-02-23T04:27:47;100115.66;;;-2.59;98.18
34674;BME280;20879;55.668;37.858;2024-02-23T04:32:54;100107.97;;;-2.61;98.30
34674;BME280;20879;55.668;37.858;2024-02-23T04:38:05;100117.31;;;-2.60;98.18
34674;BME280;20879;55.668;37.858;2024-02-23T04:43:15;100102.50;;;-2.70;98.46
34674;BME280;20879;55.668;37.858;2024-02-23T04:48:25;100113.13;;;-2.59;98.65
34674;BME280;20879;55.668;37.858;2024-02-23T04:53:47;100091.66;;;-2.86;100.00
34674;BME280;20879;55.668;37.858;2024-02-23T04:59:04;100131.56;;;-2.64;98.98
34674;BME280;20879;55.668;37.858;2024-02-23T05:04:11;100120.84;;;-2.56;99.64
34674;BME280;20879;55.668;37.858;2024-02-23T05:09:31;100132.66;;;-2.37;99.12
34674;BME280;20879;55.668;37.858;2024-02-23T05:14:37;100137.75;;;-2.37;98.95
34674;BME280;20879;55.668;37.858;2024-02-23T05:19:46;100139.88;;;-2.27;99.15
34674;BME280;20879;55.668;37.858;2024-02-23T05:25:06;100152.03;;;-2.20;98.81
34674;BME280;20879;55.668;37.858;2024-02-23T05:30:13;100142.16;;;-2.14;98.73
34674;BME280;20879;55.668;37.858;2024-02-23T05:35:37;100147.75;;;-2.01;98.37
34674;BME280;20879;55.668;37.858;2024-02-23T05:40:44;100143.16;;;-2.10;98.18
34674;BME280;20879;55.668;37.858;2024-02-23T05:45:52;100151.06;;;-2.02;98.11
34674;BME280;20879;55.668;37.858;2024-02-23T05:51:04;100163.09;;;-1.98;97.84
34674;BME280;20879;55.668;37.858;2024-02-23T05:56:11;100157.09;;;-2.00;97.75
34674;BME280;20879;55.668;37.858;2024-02-23T06:01:23;100153.47;;;-2.05;98.14
34674;BME280;20879;55.668;37.858;2024-02-23T06:06:28;100134.81;;;-2.07;97.60
34674;BME280;20879;55.668;37.858;2024-02-23T06:11:38;100156.44;;;-1.96;97.64
34674;BME280;20879;55.668;37.858;2024-02-23T06:16:44;100157.69;;;-2.06;97.60
34674;BME280;20879;55.668;37.858;2024-02-23T06:21:49;100179.53;;;-1.90;97.92
34674;BME280;20879;55.668;37.858;2024-02-23T06:27:01;100173.91;;;-1.83;97.59
34674;BME280;20879;55.668;37.858;2024-02-23T06:32:15;100174.94;;;-1.78;97.24
34674;BME280;20879;55.668;37.858;2024-02-23T06:37:31;100185.09;;;-1.78;97.15
34674;BME280;20879;55.668;37.858;2024-02-23T06:42:38;100186.41;;;-1.87;97.24
34674;BME280;20879;55.668;37.858;2024-02-23T06:47:44;100161.22;;;-2.02;97.65
34674;BME280;20879;55.668;37.858;2024-02-23T06:53:03;100194.97;;;-1.64;97.38
34674;BME280;20879;55.668;37.858;2024-02-23T06:58:14;100199.34;;;-1.41;96.94
34674;BME280;20879;55.668;37.858;2024-02-23T07:03:22;100195.44;;;-1.32;96.59
34674;BME280;20879;55.668;37.858;2024-02-23T07:08:27;100200.56;;;-1.31;96.68
34674;BME280;20879;55.668;37.858;2024-02-23T07:13:42;100193.44;;;-1.39;96.24
34674;BME280;20879;55.668;37.858;2024-02-23T07:18:47;100202.94;;;-1.56;96.21
34674;BME280;20879;55.668;37.858;2024-02-23T07:24:05;100201.78;;;-1.63;96.58
34674;BME280;20879;55.668;37.858;2024-02-23T07:29:15;100200.06;;;-1.64;96.52
34674;BME280;20879;55.668;37.858;2024-02-23T07:34:37;100203.66;;;-1.59;96.83
34674;BME280;20879;55.668;37.858;2024-02-23T07:39:48;100213.81;;;-1.59;96.71
34674;BME280;20879;55.668;37.858;2024-02-23T07:45:09;100205.78;;;-1.49;96.45
34674;BME280;20879;55.668;37.858;2024-02-23T07:50:18;100193.25;;;-1.44;96.15
34674;BME280;20879;55.668;37.858;2024-02-23T07:55:25;100212.50;;;-1.07;95.21
34674;BME280;20879;55.668;37.858;2024-02-23T08:00:33;100203.09;;;-0.89;95.02
34674;BME280;20879;55.668;37.858;2024-02-23T08:05:41;100208.72;;;-0.75;94.23
34674;BME280;20879;55.668;37.858;2024-02-23T08:10:51;100205.94;;;-0.58;93.85
34674;BME280;20879;55.668;37.858;2024-02-23T08:16:04;100223.78;;;-0.57;93.14
34674;BME280;20879;55.668;37.858;2024-02-23T08:21:39;100221.41;;;-0.52;93.39
34674;BME280;20879;55.668;37.858;2024-02-23T08:27:13;100217.59;;;-0.41;93.19
34674;BME280;20879;55.668;37.858;2024-02-23T08:32:26;100219.50;;;-0.35;93.14
34674;BME280;20879;55.668;37.858;2024-02-23T08:37:31;100215.97;;;-0.39;92.84
34674;BME280;20879;55.668;37.858;2024-02-23T08:42:41;100232.56;;;-0.26;92.35
34674;BME280;20879;55.668;37.858;2024-02-23T08:48:02;100221.91;;;-0.15;91.10
34674;BME280;20879;55.668;37.858;2024-02-23T08:53:21;100240.47;;;0.05;91.37
34674;BME280;20879;55.668;37.858;2024-02-23T08:58:29;100230.69;;;0.17;90.55
34674;BME280;20879;55.668;37.858;2024-02-23T09:03:37;100237.06;;;0.06;90.33
34674;BME280;20879;55.668;37.858;2024-02-23T09:08:42;100224.50;;;-0.14;89.75
34674;BME280;20879;55.668;37.858;2024-02-23T09:13:48;100249.97;;;-0.14;89.90
34674;BME280;20879;55.668;37.858;2024-02-23T09:19:00;100244.56;;;0.01;90.34
34674;BME280;20879;55.668;37.858;2024-02-23T09:24:06;100250.81;;;0.09;89.79
34674;BME280;20879;55.668;37.858;2024-02-23T09:29:12;100244.69;;;0.28;89.87
34674;BME280;20879;55.668;37.858;2024-02-23T09:34:20;100257.78;;;0.39;89.40
34674;BME280;20879;55.668;37.858;2024-02-23T09:39:25;100245.63;;;0.56;88.91
34674;BME280;20879;55.668;37.858;2024-02-23T09:44:33;100253.06;;;0.76;88.01
34674;BME280;20879;55.668;37.858;2024-02-23T09:49:44;100255.56;;;0.74;88.03
34674;BME280;20879;55.668;37.858;2024-02-23T09:54:53;100251.13;;;0.68;87.65
34674;BME280;20879;55.668;37.858;2024-02-23T10:00:01;100248.72;;;0.73;88.22
34674;BME280;20879;55.668;37.858;2024-02-23T10:05:17;100252.22;;;1.02;87.54
34674;BME280;20879;55.668;37.858;2024-02-23T10:10:29;100249.13;;;1.13;86.79
34674;BME280;20879;55.668;37.858;2024-02-23T10:15:43;100255.50;;;0.98;86.86
34674;BME280;20879;55.668;37.858;2024-02-23T10:21:14;100263.59;;;1.12;87.00
34674;BME280;20879;55.668;37.858;2024-02-23T10:26:26;100255.22;;;1.16;86.44
34674;BME280;20879;55.668;37.858;2024-02-23T10:31:35;100247.94;;;1.29;86.14
34674;BME280;20879;55.668;37.858;2024-02-23T10:36:44;100250.53;;;1.30;85.98
34674;BME280;20879;55.668;37.858;2024-02-23T10:42:04;100261.53;;;1.28;85.64
34674;BME280;20879;55.668;37.858;2024-02-23T10:47:11;100278.22;;;1.18;86.09
34674;BME280;20879;55.668;37.858;2024-02-23T10:52:22;100267.75;;;1.37;85.22
34674;BME280;20879;55.668;37.858;2024-02-23T10:57:35;100281.28;;;1.33;85.58
34674;BME280;20879;55.668;37.858;2024-02-23T11:02:46;100281.06;;;1.27;85.55
34674;BME280;20879;55.668;37.858;2024-02-23T11:08:01;100273.63;;;1.33;85.54
34674;BME280;20879;55.668;37.858;2024-02-23T11:13:30;100295.88;;;1.39;85.25
34674;BME280;20879;55.668;37.858;2024-02-23T11:18:39;100293.13;;;1.33;85.36
34674;BME280;20879;55.668;37.858;2024-02-23T11:23:48;100285.47;;;1.60;84.57
34674;BME280;20879;55.668;37.858;2024-02-23T11:29:09;100287.84;;;1.54;84.03
34674;BME280;20879;55.668;37.858;2024-02-23T11:34:28;100304.22;;;1.33;84.47
34674;BME280;20879;55.668;37.858;2024-02-23T11:39:38;100297.81;;;1.19;84.88
34674;BME280;20879;55.668;37.858;2024-02-23T11:45:03;100305.16;;;1.10;86.20
34674;BME280;20879;55.668;37.858;2024-02-23T11:50:15;100298.72;;;1.21;85.67
34674;BME280;20879;55.668;37.858;2024-02-23T11:55:27;100299.44;;;1.17;85.91
34674;BME280;20879;55.668;37.858;2024-02-23T12:00:34;100315.97;;;1.02;86.35
34674;BME280;20879;55.668;37.858;2024-02-23T12:05:55;100295.28;;;1.48;85.77
34674;BME280;20879;55.668;37.858;2024-02-23T12:11:04;100300.31;;;1.45;85.43
34674;BME280;20879;55.668;37.858;2024-02-23T12:16:11;100292.50;;;1.13;86.27
34674;BME280;20879;55.668;37.858;2024-02-23T12:21:26;100284.47;;;1.00;86.79
34674;BME280;20879;55.668;37.858;2024-02-23T12:26:36;100292.09;;;1.00;87.30
34674;BME280;20879;55.668;37.858;2024-02-23T12:31:42;100298.13;;;1.02;87.53
34674;BME280;20879;55.668;37.858;2024-02-23T12:36:53;100307.47;;;1.02;87.24
34674;BME280;20879;55.668;37.858;2024-02-23T12:48:13;100322.28;;;0.62;88.26
34674;BME280;20879;55.668;37.858;2024-02-23T12:53:34;100327.47;;;0.90;88.67
34674;BME280;20879;55.668;37.858;2024-02-23T12:58:53;100331.28;;;1.02;88.32
34674;BME280;20879;55.668;37.858;2024-02-23T13:04:06;100333.72;;;1.25;87.91
34674;BME280;20879;55.668;37.858;2024-02-23T13:09:19;100332.81;;;1.23;88.19
34674;BME280;20879;55.668;37.858;2024-02-23T13:14:24;100338.34;;;1.11;88.35
34674;BME280;20879;55.668;37.858;2024-02-23T13:19:43;100341.41;;;1.01;88.86
34674;BME280;20879;55.668;37.858;2024-02-23T13:25:15;100342.38;;;0.79;89.17
34674;BME280;20879;55.668;37.858;2024-02-23T13:30:20;100333.81;;;0.77;89.72
34674;BME280;20879;55.668;37.858;2024-02-23T13:35:30;100340.91;;;0.61;90.07
34674;BME280;20879;55.668;37.858;2024-02-23T13:40:36;100332.09;;;0.51;90.30
34674;BME280;20879;55.668;37.858;2024-02-23T13:45:49;100340.50;;;0.49;91.15
34674;BME280;20879;55.668;37.858;2024-02-23T13:51:06;100348.00;;;0.44;91.38
34674;BME280;20879;55.668;37.858;2024-02-23T13:56:11;100348.09;;;0.47;91.14
34674;BME280;20879;55.668;37.858;2024-02-23T14:01:18;100333.44;;;0.42;91.12
34674;BME280;20879;55.668;37.858;2024-02-23T14:06:37;100341.16;;;0.43;91.69
34674;BME280;20879;55.668;37.858;2024-02-23T14:11:46;100342.69;;;0.38;91.42
34674;BME280;20879;55.668;37.858;2024-02-23T14:16:54;100343.53;;;0.39;91.74
34674;BME280;20879;55.668;37.858;2024-02-23T14:22:17;100347.94;;;0.43;92.46
34674;BME280;20879;55.668;37.858;2024-02-23T14:27:28;100331.81;;;0.20;92.19
34674;BME280;20879;55.668;37.858;2024-02-23T14:32:34;100350.72;;;0.26;92.55
34674;BME280;20879;55.668;37.858;2024-02-23T14:37:45;100351.59;;;0.27;92.63
34674;BME280;20879;55.668;37.858;2024-02-23T14:42:57;100346.09;;;0.16;93.20
34674;BME280;20879;55.668;37.858;2024-02-23T14:48:05;100362.50;;;0.23;93.52
34674;BME280;20879;55.668;37.858;2024-02-23T14:53:20;100370.19;;;0.24;93.51
34674;BME280;20879;55.668;37.858;2024-02-23T14:58:30;100360.78;;;0.23;93.67
34674;BME280;20879;55.668;37.858;2024-02-23T15:09:02;100363.13;;;0.17;94.24
34674;BME280;20879;55.668;37.858;2024-02-23T15:14:09;100355.00;;;0.27;94.00
34674;BME280;20879;55.668;37.858;2024-02-23T15:19:14;100372.09;;;0.30;94.25
34674;BME280;20879;55.668;37.858;2024-02-23T15:24:31;100383.19;;;0.32;94.66
34674;BME280;20879;55.668;37.858;2024-02-23T15:29:50;100392.75;;;0.38;94.36
34674;BME280;20879;55.668;37.858;2024-02-23T15:34:57;100391.94;;;0.39;94.09
34674;BME280;20879;55.668;37.858;2024-02-23T15:40:10;100391.16;;;0.40;94.31
34674;BME280;20879;55.668;37.858;2024-02-23T15:45:15;100392.00;;;0.40;94.58
34674;BME280;20879;55.668;37.858;2024-02-23T15:50:22;100389.28;;;0.36;94.44
34674;BME280;20879;55.668;37.858;2024-02-23T15:56:05;100387.44;;;0.31;94.96
34674;BME280;20879;55.668;37.858;2024-02-23T16:01:10;100396.25;;;0.40;94.99
34674;BME280;20879;55.668;37.858;2024-02-23T16:06:17;100404.97;;;0.46;94.90
34674;BME280;20879;55.668;37.858;2024-02-23T16:11:35;100409.31;;;0.49;95.16
34674;BME280;20879;55.668;37.858;2024-02-23T16:16:42;100404.16;;;0.47;94.94
34674;BME280;20879;55.668;37.858;2024-02-23T16:22:01;100354.56;;;0.15;95.44
34674;BME280;20879;55.668;37.858;2024-02-23T16:27:25;100400.91;;;0.51;95.59
34674;BME280;20879;55.668;37.858;2024-02-23T16:32:33;100394.13;;;0.52;96.15
34674;BME280;20879;55.668;37.858;2024-02-23T16:37:44;100406.97;;;0.55;95.10
34674;BME280;20879;55.668;37.858;2024-02-23T16:42:59;100400.38;;;0.60;95.39
34674;BME280;20879;55.668;37.858;2024-02-23T16:48:10;100399.78;;;0.67;95.71
34674;BME280;20879;55.668;37.858;2024-02-23T16:53:22;100402.88;;;0.59;95.49
34674;BME280;20879;55.668;37.858;2024-02-23T16:58:31;100412.47;;;0.66;95.73
34674;BME280;20879;55.668;37.858;2024-02-23T17:03:46;100418.66;;;0.73;96.08
34674;BME280;20879;55.668;37.858;2024-02-23T17:09:16;100420.44;;;0.75;96.09
34674;BME280;20879;55.668;37.858;2024-02-23T17:14:26;100418.84;;;0.79;95.46
34674;BME280;20879;55.668;37.858;2024-02-23T17:19:40;100423.00;;;0.75;95.69
34674;BME280;20879;55.668;37.858;2024-02-23T17:24:51;100417.09;;;0.76;96.15
34674;BME280;20879;55.668;37.858;2024-02-23T17:30:00;100410.25;;;0.75;96.01
34674;BME280;20879;55.668;37.858;2024-02-23T17:35:06;100421.19;;;0.73;96.04
34674;BME280;20879;55.668;37.858;2024-02-23T17:40:13;100422.88;;;0.72;96.30
34674;BME280;20879;55.668;37.858;2024-02-23T17:45:34;100418.75;;;0.76;96.02
34674;BME280;20879;55.668;37.858;2024-02-23T17:50:41;100411.75;;;0.70;96.63
34674;BME280;20879;55.668;37.858;2024-02-23T17:55:55;100419.69;;;0.78;96.40
34674;BME280;20879;55.668;37.858;2024-02-23T18:01:09;100383.28;;;0.58;96.38
34674;BME280;20879;55.668;37.858;2024-02-23T18:06:22;100418.06;;;0.80;96.19
34674;BME280;20879;55.668;37.858;2024-02-23T18:11:34;100425.53;;;0.75;96.54
34674;BME280;20879;55.668;37.858;2024-02-23T18:16:51;100423.91;;;0.77;96.26
34674;BME280;20879;55.668;37.858;2024-02-23T18:21:57;100441.16;;;0.84;96.41
34674;BME280;20879;55.668;37.858;2024-02-23T18:27:06;100443.66;;;0.83;96.67
34674;BME280;20879;55.668;37.858;2024-02-23T18:32:18;100455.53;;;0.82;96.41
34674;BME280;20879;55.668;37.858;2024-02-23T18:37:27;100445.88;;;0.74;96.38
34674;BME280;20879;55.668;37.858;2024-02-23T18:42:34;100453.53;;;0.74;96.57
34674;BME280;20879;55.668;37.858;2024-02-23T18:47:50;100422.47;;;0.61;96.43
34674;BME280;20879;55.668;37.858;2024-02-23T18:52:56;100455.50;;;0.81;96.65
34674;BME280;20879;55.668;37.858;2024-02-23T18:58:02;100458.75;;;0.77;96.15
34674;BME280;20879;55.668;37.858;2024-02-23T19:09:03;100467.19;;;0.76;96.07
34674;BME280;20879;55.668;37.858;2024-02-23T19:14:16;100468.81;;;0.74;96.27
34674;BME280;20879;55.668;37.858;2024-02-23T19:19:37;100465.44;;;0.75;96.22
34674;BME280;20879;55.668;37.858;2024-02-23T19:24:42;100462.09;;;0.76;95.73
34674;BME280;20879;55.668;37.858;2024-02-23T19:29:48;100468.59;;;0.67;95.93
34674;BME280;20879;55.668;37.858;2024-02-23T19:35:03;100471.84;;;0.63;95.79
34674;BME280;20879;55.668;37.858;2024-02-23T19:40:10;100482.00;;;0.62;96.28
34674;BME280;20879;55.668;37.858;2024-02-23T19:45:22;100473.50;;;0.63;95.83
34674;BME280;20879;55.668;37.858;2024-02-23T19:50:32;100488.75;;;0.61;96.17
34674;BME280;20879;55.668;37.858;2024-02-23T19:55:43;100483.72;;;0.63;95.51
34674;BME280;20879;55.668;37.858;2024-02-23T20:00:50;100497.22;;;0.60;95.52
34674;BME280;20879;55.668;37.858;2024-02-23T20:06:05;100501.38;;;0.58;95.60
34674;BME280;20879;55.668;37.858;2024-02-23T20:11:15;100506.13;;;0.49;95.90
34674;BME280;20879;55.668;37.858;2024-02-23T20:16:20;100505.91;;;0.43;95.60
34674;BME280;20879;55.668;37.858;2024-02-23T20:21:38;100512.16;;;0.51;95.66
34674;BME280;20879;55.668;37.858;2024-02-23T20:26:54;100513.03;;;0.51;95.32
34674;BME280;20879;55.668;37.858;2024-02-23T20:32:05;100505.06;;;0.44;95.16
34674;BME280;20879;55.668;37.858;2024-02-23T20:37:31;100522.91;;;0.44;95.48
34674;BME280;20879;55.668;37.858;2024-02-23T20:42:37;100525.47;;;0.44;95.01
34674;BME280;20879;55.668;37.858;2024-02-23T20:47:49;100522.78;;;0.41;95.31
34674;BME280;20879;55.668;37.858;2024-02-23T20:52:58;100527.09;;;0.42;95.05
34674;BME280;20879;55.668;37.858;2024-02-23T20:58:18;100517.00;;;0.45;95.08
34674;BME280;20879;55.668;37.858;2024-02-23T21:03:30;100519.38;;;0.40;94.80
34674;BME280;20879;55.668;37.858;2024-02-23T21:08:39;100530.09;;;0.31;95.25
34674;BME280;20879;55.668;37.858;2024-02-23T21:13:49;100527.50;;;0.30;94.96
34674;BME280;20879;55.668;37.858;2024-02-23T21:19:01;100538.66;;;0.33;95.26
34674;BME280;20879;55.668;37.858;2024-02-23T21:24:13;100546.84;;;0.26;95.31
34674;BME280;20879;55.668;37.858;2024-02-23T21:29:23;100546.56;;;0.19;95.85
34674;BME280;20879;55.668;37.858;2024-02-23T21:34:28;100529.06;;;0.05;95.70
34674;BME280;20879;55.668;37.858;2024-02-23T21:39:55;100551.34;;;0.11;95.66
34674;BME280;20879;55.668;37.858;2024-02-23T21:45:15;100547.25;;;0.14;95.34
34674;BME280;20879;55.668;37.858;2024-02-23T21:50:25;100541.16;;;0.11;95.17
34674;BME280;20879;55.668;37.858;2024-02-23T21:55:38;100560.69;;;0.10;95.02
34674;BME280;20879;55.668;37.858;2024-02-23T22:00:56;100563.66;;;0.00;95.21
34674;BME280;20879;55.668;37.858;2024-02-23T22:06:01;100564.53;;;0.01;95.19
34674;BME280;20879;55.668;37.858;2024-02-23T22:11:15;100585.13;;;0.07;95.22
34674;BME280;20879;55.668;37.858;2024-02-23T22:16:21;100577.44;;;0.05;94.70
34674;BME280;20879;55.668;37.858;2024-02-23T22:21:36;100578.16;;;0.03;95.16
34674;BME280;20879;55.668;37.858;2024-02-23T22:26:44;100606.25;;;0.04;94.73
34674;BME280;20879;55.668;37.858;2024-02-23T22:31:57;100613.28;;;0.10;94.80
34674;BME280;20879;55.668;37.858;2024-02-23T22:37:10;100624.34;;;0.10;94.56
34674;BME280;20879;55.668;37.858;2024-02-23T22:42:28;100632.97;;;0.14;94.17
34674;BME280;20879;55.668;37.858;2024-02-23T22:47:33;100630.84;;;0.04;93.86
34674;BME280;20879;55.668;37.858;2024-02-23T22:52:47;100615.81;;;-0.11;93.98
34674;BME280;20879;55.668;37.858;2024-02-23T22:57:59;100644.72;;;0.10;93.87
34674;BME280;20879;55.668;37.858;2024-02-23T23:03:10;100647.00;;;0.04;93.65
34674;BME280;20879;55.668;37.858;2024-02-23T23:08:20;100643.53;;;0.02;93.87
34674;BME280;20879;55.668;37.858;2024-02-23T23:13:28;100645.88;;;-0.03;93.83
34674;BME280;20879;55.668;37.858;2024-02-23T23:18:35;100644.13;;;-0.04;93.47
34674;BME280;20879;55.668;37.858;2024-02-23T23:23:53;100642.25;;;-0.08;93.27
34674;BME280;20879;55.668;37.858;2024-02-23T23:29:06;100648.22;;;-0.07;93.43
34674;BME280;20879;55.668;37.858;2024-02-23T23:34:12;100638.91;;;-0.07;93.48
34674;BME280;20879;55.668;37.858;2024-02-23T23:39:28;100620.28;;;-0.25;93.38
34674;BME280;20879;55.668;37.858;2024-02-23T23:44:37;100639.19;;;-0.20;93.31
34674;BME280;20879;55.668;37.858;2024-02-23T23:49:43;100646.16;;;-0.16;93.42
34674;BME280;20879;55.668;37.858;2024-02-23T23:54:48;100646.69;;;-0.23;93.16
